Time;durP1;ratioP1;P1;durP2;ratioP2;P2;SDS_P1;SDS_P2;PMS_P1;PMS_P2;Temp;Humidity;BMP_temperature;BMP_pressure;BME280_temperature;BME280_humidity;BME280_pressure;Samples;Min_cycle;Max_cycle;Signal;HPM_P1;HPM_P2
2023/05/16 00:00:26;;;;;;;3.88;2.40;;;22.00;54.00;;;;;;5004442;28;20061;-75
2023/05/16 00:02:52;;;;;;;3.70;2.45;;;22.10;53.90;;;;;;4997130;28;20044;-75
2023/05/16 00:05:18;;;;;;;3.90;2.40;;;22.00;53.80;;;;;;5012832;28;20026;-75
2023/05/16 00:07:46;;;;;;;4.82;2.83;;;22.00;53.80;;;;;;5012257;28;20411;-75
2023/05/16 00:10:12;;;;;;;10.00;3.05;;;22.00;54.00;;;;;;5012916;28;20451;-75
2023/05/16 00:12:39;;;;;;;3.53;2.40;;;22.00;54.00;;;;;;5012747;28;20048;-75
2023/05/16 00:15:11;;;;;;;4.60;2.53;;;22.10;54.00;;;;;;5006852;28;20022;-75
2023/05/16 00:17:37;;;;;;;3.50;2.30;;;22.00;54.10;;;;;;5004040;28;20045;-75
2023/05/16 00:20:06;;;;;;;6.03;2.40;;;22.00;54.00;;;;;;4992335;28;20266;-75
2023/05/16 00:22:32;;;;;;;3.22;2.15;;;22.10;54.20;;;;;;4983651;28;20113;-76
2023/05/16 00:24:58;;;;;;;3.58;2.45;;;22.00;54.00;;;;;;4992792;28;20457;-76
2023/05/16 00:27:24;;;;;;;9.63;2.42;;;22.10;54.10;;;;;;4975062;28;20113;-76
2023/05/16 00:29:50;;;;;;;5.50;2.65;;;22.10;54.10;;;;;;4997623;28;20026;-76
2023/05/16 00:32:17;;;;;;;4.20;2.40;;;22.10;54.10;;;;;;5004117;28;20021;-75
2023/05/16 00:34:43;;;;;;;4.22;2.45;;;22.00;54.10;;;;;;4994748;28;20029;-75
2023/05/16 00:37:09;;;;;;;3.83;2.35;;;22.00;54.10;;;;;;4994226;28;20091;-75
2023/05/16 00:39:36;;;;;;;4.95;2.35;;;22.10;54.20;;;;;;5009039;28;20270;-75
2023/05/16 00:42:02;;;;;;;4.22;2.60;;;22.00;54.10;;;;;;4971987;28;20037;-75
2023/05/16 00:44:27;;;;;;;4.32;2.70;;;22.00;54.10;;;;;;5012251;28;20037;-75
2023/05/16 00:46:53;;;;;;;7.47;2.42;;;22.00;54.20;;;;;;5003716;28;20392;-75
2023/05/16 00:49:20;;;;;;;8.75;2.40;;;22.00;54.20;;;;;;5007756;28;20028;-75
2023/05/16 00:51:46;;;;;;;5.15;2.78;;;22.00;54.20;;;;;;4994500;28;20038;-74
2023/05/16 00:54:12;;;;;;;3.97;2.50;;;22.00;54.10;;;;;;4991754;28;20022;-75
2023/05/16 00:56:39;;;;;;;4.60;2.88;;;22.00;54.10;;;;;;4983642;28;20037;-75
2023/05/16 00:59:05;;;;;;;4.68;2.92;;;22.00;54.20;;;;;;4987970;28;20061;-76
2023/05/16 01:01:32;;;;;;;6.13;2.55;;;22.00;54.30;;;;;;4978378;28;20037;-76
2023/05/16 01:03:59;;;;;;;4.78;2.47;;;22.00;54.30;;;;;;4980611;28;20488;-76
2023/05/16 01:06:26;;;;;;;3.88;2.80;;;22.00;54.20;;;;;;4970101;28;20030;-76
2023/05/16 01:08:52;;;;;;;3.92;2.47;;;22.00;54.30;;;;;;5011308;28;20480;-75
2023/05/16 01:11:33;;;;;;;3.70;2.53;;;22.00;54.30;;;;;;5011818;28;20476;-75
2023/05/16 01:14:36;;;;;;;6.30;2.80;;;22.00;54.30;;;;;;4994543;28;20026;-76
2023/05/16 01:17:11;;;;;;;8.88;2.65;;;22.00;54.40;;;;;;5011341;28;20042;-76
2023/05/16 01:19:37;;;;;;;4.60;2.63;;;22.00;54.60;;;;;;4974560;28;20045;-76
2023/05/16 01:22:27;;;;;;;6.47;2.90;;;22.00;54.50;;;;;;5005191;28;20510;-76
2023/05/16 01:25:04;;;;;;;;;;;22.00;54.50;;;;;;4994678;28;20476;-75
2023/05/16 01:27:30;;;;;;;4.18;2.53;;;22.00;54.40;;;;;;4993750;28;19921;-75
2023/05/16 01:29:57;;;;;;;6.18;2.90;;;22.00;54.50;;;;;;5001873;28;20030;-75
2023/05/16 01:32:23;;;;;;;4.07;2.88;;;22.00;54.30;;;;;;4985930;28;20026;-75
2023/05/16 01:34:52;;;;;;;4.75;2.63;;;22.00;54.50;;;;;;4993969;28;20072;-75
2023/05/16 01:37:33;;;;;;;3.60;2.30;;;22.00;54.30;;;;;;5012408;28;20522;-75
2023/05/16 01:40:06;;;;;;;4.55;2.67;;;22.00;54.40;;;;;;5015645;28;20034;-75
2023/05/16 01:42:38;;;;;;;4.78;2.70;;;22.00;54.60;;;;;;4982107;28;20038;-76
2023/05/16 01:45:11;;;;;;;6.03;2.92;;;22.00;54.40;;;;;;4987165;28;20035;-75
2023/05/16 01:47:40;;;;;;;3.25;2.40;;;22.00;54.40;;;;;;4995479;28;20052;-76
2023/05/16 01:50:14;;;;;;;4.53;2.60;;;22.00;54.50;;;;;;4965842;28;20053;-75
2023/05/16 01:52:52;;;;;;;4.65;2.85;;;22.00;54.40;;;;;;4997771;28;20485;-76
2023/05/16 01:55:44;;;;;;;4.70;2.67;;;22.00;54.60;;;;;;5012155;28;20087;-76
2023/05/16 01:58:12;;;;;;;5.35;2.45;;;22.00;54.60;;;;;;4979250;28;20054;-75
2023/05/16 02:00:39;;;;;;;6.13;2.70;;;22.00;54.60;;;;;;4979695;28;20117;-74
2023/05/16 02:03:05;;;;;;;3.90;2.58;;;22.00;54.60;;;;;;4997649;28;20044;-74
2023/05/16 02:05:31;;;;;;;4.35;2.50;;;22.00;54.70;;;;;;5015098;28;20114;-74
2023/05/16 02:07:58;;;;;;;4.50;2.63;;;22.00;54.50;;;;;;5014618;28;20112;-75
2023/05/16 02:10:25;;;;;;;3.60;2.47;;;22.00;54.50;;;;;;4973489;28;20031;-74
2023/05/16 02:12:51;;;;;;;9.63;2.42;;;22.00;54.50;;;;;;4995440;28;20026;-75
2023/05/16 02:15:17;;;;;;;4.93;2.85;;;22.00;54.50;;;;;;4961920;28;20026;-75
2023/05/16 02:17:43;;;;;;;5.85;2.53;;;22.00;54.40;;;;;;4977479;28;20057;-75
2023/05/16 02:20:10;;;;;;;4.72;2.30;;;22.00;54.60;;;;;;4961880;28;20039;-75
2023/05/16 02:22:38;;;;;;;3.47;2.30;;;22.00;54.70;;;;;;4977778;28;20088;-75
2023/05/16 02:25:05;;;;;;;3.63;2.50;;;22.00;54.50;;;;;;4976706;28;20026;-75
2023/05/16 02:27:31;;;;;;;3.30;2.40;;;22.00;54.60;;;;;;4985815;28;20754;-75
2023/05/16 02:29:57;;;;;;;5.35;2.42;;;22.00;54.60;;;;;;4980955;28;20033;-75
2023/05/16 02:32:23;;;;;;;3.85;2.72;;;22.00;54.40;;;;;;4997525;28;20077;-75
2023/05/16 02:34:51;;;;;;;4.57;2.42;;;22.00;54.60;;;;;;4996961;28;20504;-75
2023/05/16 02:37:16;;;;;;;5.25;2.40;;;22.00;54.70;;;;;;5002019;28;20034;-75
2023/05/16 02:39:42;;;;;;;3.92;2.45;;;22.00;55.20;;;;;;4995727;28;20030;-75
2023/05/16 02:42:09;;;;;;;5.20;2.70;;;22.00;54.80;;;;;;4980756;28;20056;-75
2023/05/16 02:44:34;;;;;;;3.75;2.50;;;22.00;54.60;;;;;;4980824;28;20044;-75
2023/05/16 02:47:00;;;;;;;4.38;2.55;;;22.00;54.50;;;;;;4996425;28;20033;-75
2023/05/16 02:49:26;;;;;;;3.97;2.35;;;22.00;54.50;;;;;;4978768;28;20040;-74
2023/05/16 02:51:52;;;;;;;4.80;2.50;;;22.00;54.40;;;;;;5001137;28;20035;-74
2023/05/16 02:54:18;;;;;;;3.28;2.47;;;22.00;54.40;;;;;;5009674;28;20088;-74
2023/05/16 02:56:44;;;;;;;4.88;2.58;;;22.00;54.50;;;;;;4964321;28;20076;-74
2023/05/16 02:59:10;;;;;;;4.20;2.58;;;21.90;54.40;;;;;;4996370;28;20028;-74
2023/05/16 03:01:36;;;;;;;6.22;2.95;;;22.00;54.40;;;;;;4996557;28;20034;-74
2023/05/16 03:04:04;;;;;;;3.78;2.53;;;22.00;54.50;;;;;;4981608;28;21381;-75
2023/05/16 03:06:30;;;;;;;4.95;2.83;;;22.00;54.50;;;;;;4985655;28;20069;-75
2023/05/16 03:08:58;;;;;;;5.70;2.30;;;22.00;54.50;;;;;;4996079;28;20038;-75
2023/05/16 03:11:25;;;;;;;3.58;2.42;;;21.90;54.70;;;;;;4996516;28;20029;-74
2023/05/16 03:13:51;;;;;;;4.00;2.60;;;22.00;54.50;;;;;;5013869;28;20026;-75
2023/05/16 03:16:17;;;;;;;4.15;2.53;;;22.00;54.50;;;;;;4978546;28;20030;-75
2023/05/16 03:18:43;;;;;;;5.57;2.97;;;21.90;54.40;;;;;;4985117;28;20033;-75
2023/05/16 03:21:09;;;;;;;4.90;2.50;;;21.90;54.40;;;;;;4971922;28;20037;-75
2023/05/16 03:23:35;;;;;;;4.32;2.60;;;21.90;54.50;;;;;;4996534;28;20037;-75
2023/05/16 03:26:04;;;;;;;6.10;2.70;;;21.90;54.60;;;;;;5013648;28;20029;-75
2023/05/16 03:28:30;;;;;;;3.70;2.47;;;21.90;54.70;;;;;;4995660;28;20104;-74
2023/05/16 03:30:56;;;;;;;3.60;2.47;;;22.00;54.80;;;;;;5013602;28;20034;-74
2023/05/16 03:33:23;;;;;;;4.60;2.38;;;21.90;54.50;;;;;;4971175;28;20038;-74
2023/05/16 03:35:49;;;;;;;4.55;2.60;;;22.00;54.70;;;;;;5005117;28;20022;-74
2023/05/16 03:38:16;;;;;;;5.90;2.75;;;22.00;54.70;;;;;;4995472;28;20065;-74
2023/05/16 03:40:43;;;;;;;4.10;2.80;;;22.00;55.00;;;;;;4995929;28;20133;-74
2023/05/16 03:43:09;;;;;;;4.55;2.65;;;22.00;55.30;;;;;;4987731;28;20058;-75
2023/05/16 03:45:34;;;;;;;4.13;2.50;;;21.90;54.70;;;;;;4969569;28;20131;-74
2023/05/16 03:48:00;;;;;;;4.72;2.80;;;21.90;54.60;;;;;;4988509;28;20030;-75
2023/05/16 03:50:26;;;;;;;4.82;2.65;;;21.90;54.70;;;;;;4995631;28;20030;-75
2023/05/16 03:52:53;;;;;;;5.60;2.80;;;22.00;55.00;;;;;;4995486;28;20083;-74
2023/05/16 03:55:19;;;;;;;3.10;2.53;;;21.90;54.70;;;;;;4995467;28;20526;-74
2023/05/16 03:57:46;;;;;;;4.65;2.47;;;21.90;54.70;;;;;;5005665;28;20029;-74
2023/05/16 04:00:13;;;;;;;3.35;2.42;;;21.90;54.80;;;;;;4982962;28;20488;-74
2023/05/16 04:02:39;;;;;;;4.78;2.65;;;21.90;54.70;;;;;;4967931;28;20487;-74
2023/05/16 04:05:09;;;;;;;4.82;2.35;;;22.00;54.60;;;;;;5006528;28;20026;-74
2023/05/16 04:07:36;;;;;;;4.32;2.40;;;21.90;54.60;;;;;;4994894;28;20057;-74
2023/05/16 04:10:03;;;;;;;4.97;2.90;;;22.00;55.00;;;;;;4993616;28;20440;-75
2023/05/16 04:12:29;;;;;;;4.68;2.50;;;21.90;54.70;;;;;;4983362;28;20018;-76
2023/05/16 04:14:55;;;;;;;5.43;2.80;;;21.90;54.60;;;;;;5004373;28;20084;-76
2023/05/16 04:17:21;;;;;;;6.18;2.90;;;22.00;54.50;;;;;;5012204;28;20062;-76
2023/05/16 04:19:46;;;;;;;4.07;2.83;;;21.90;54.40;;;;;;5012556;28;20113;-76
2023/05/16 04:22:12;;;;;;;5.18;2.92;;;21.90;54.70;;;;;;5012751;28;20030;-76
2023/05/16 04:24:38;;;;;;;4.70;3.05;;;21.90;54.60;;;;;;5009610;28;20564;-76
2023/05/16 04:27:07;;;;;;;6.30;3.03;;;21.90;54.30;;;;;;5000423;28;20034;-76
2023/05/16 04:29:34;;;;;;;5.35;3.10;;;21.90;54.30;;;;;;5010088;28;20033;-75
2023/05/16 04:32:01;;;;;;;5.30;2.78;;;21.90;54.30;;;;;;5012391;28;20048;-76
2023/05/16 04:34:27;;;;;;;6.00;2.95;;;21.90;54.70;;;;;;5012897;28;20527;-75
2023/05/16 04:36:56;;;;;;;4.68;2.85;;;21.90;54.40;;;;;;4994372;28;20135;-76
2023/05/16 04:39:22;;;;;;;4.97;2.80;;;21.90;55.20;;;;;;5012320;28;20026;-76
2023/05/16 04:41:48;;;;;;;6.10;3.03;;;21.90;54.80;;;;;;4983804;28;20052;-75
2023/05/16 04:44:14;;;;;;;4.15;3.03;;;21.90;54.90;;;;;;5003902;28;20057;-75
2023/05/16 04:46:40;;;;;;;4.45;3.00;;;21.90;54.40;;;;;;5011864;28;20034;-76
2023/05/16 04:49:06;;;;;;;7.88;3.28;;;22.00;54.80;;;;;;5011617;28;20472;-73
2023/05/16 04:51:32;;;;;;;4.78;2.83;;;21.90;54.20;;;;;;5012116;28;20029;-74
2023/05/16 04:53:58;;;;;;;6.47;3.00;;;21.90;54.50;;;;;;5003206;28;20072;-74
2023/05/16 04:56:25;;;;;;;6.20;3.22;;;21.90;54.70;;;;;;4986307;28;20397;-74
2023/05/16 04:58:51;;;;;;;6.43;3.20;;;21.90;54.30;;;;;;5011514;28;20476;-74
2023/05/16 05:01:17;;;;;;;6.32;3.45;;;21.90;54.50;;;;;;4994180;28;20030;-74
2023/05/16 05:03:43;;;;;;;5.97;3.22;;;22.00;54.80;;;;;;4985715;28;20026;-73
2023/05/16 05:06:09;;;;;;;5.40;3.08;;;22.00;54.80;;;;;;5003535;28;20076;-73
2023/05/16 05:08:35;;;;;;;6.53;3.40;;;21.90;54.40;;;;;;4993745;28;20480;-72
2023/05/16 05:11:01;;;;;;;6.50;3.22;;;21.90;54.40;;;;;;5011486;28;20462;-74
2023/05/16 05:13:27;;;;;;;5.57;3.47;;;21.90;54.60;;;;;;5011431;28;20021;-74
2023/05/16 05:15:53;;;;;;;7.22;3.33;;;21.90;54.50;;;;;;5011547;28;20033;-73
2023/05/16 05:18:19;;;;;;;4.90;3.17;;;21.90;55.20;;;;;;4998057;28;20500;-73
2023/05/16 05:20:45;;;;;;;6.03;3.40;;;21.90;54.10;;;;;;5002521;28;20520;-72
2023/05/16 05:23:10;;;;;;;4.60;2.90;;;21.90;54.00;;;;;;5011543;28;20412;-73
2023/05/16 05:25:37;;;;;;;6.32;3.00;;;21.90;54.50;;;;;;5011599;28;20025;-73
2023/05/16 05:28:03;;;;;;;5.95;3.35;;;21.90;54.50;;;;;;4993607;28;20036;-73
2023/05/16 05:30:30;;;;;;;4.95;2.72;;;21.90;54.20;;;;;;5011431;28;20025;-73
2023/05/16 05:32:55;;;;;;;4.10;3.00;;;21.90;54.80;;;;;;5006298;28;20291;-73
2023/05/16 05:35:21;;;;;;;5.55;2.95;;;21.90;54.90;;;;;;4982541;28;20034;-73
2023/05/16 05:37:47;;;;;;;6.82;3.53;;;21.90;54.80;;;;;;4992740;28;20033;-73
2023/05/16 05:40:13;;;;;;;6.78;3.03;;;21.90;54.70;;;;;;5011404;28;20486;-73
2023/05/16 05:42:39;;;;;;;5.47;3.30;;;21.90;54.80;;;;;;5011362;28;20041;-73
2023/05/16 05:45:06;;;;;;;3.80;2.60;;;21.90;54.70;;;;;;5011361;28;20033;-74
2023/05/16 05:47:32;;;;;;;6.50;3.08;;;21.90;55.10;;;;;;5005339;28;20384;-74
2023/05/16 05:49:58;;;;;;;4.97;2.95;;;22.00;55.00;;;;;;5003106;28;20022;-73
2023/05/16 05:52:24;;;;;;;5.88;3.30;;;21.90;54.30;;;;;;5011419;28;20080;-73
2023/05/16 05:54:50;;;;;;;5.35;3.05;;;21.90;54.30;;;;;;5011420;28;20026;-73
2023/05/16 05:57:16;;;;;;;4.03;3.03;;;21.90;54.10;;;;;;5007189;28;20040;-74
2023/05/16 05:59:41;;;;;;;7.70;2.70;;;22.00;54.10;;;;;;5003554;28;20392;-73
2023/05/16 06:02:07;;;;;;;6.38;2.65;;;22.00;54.50;;;;;;4987883;28;20048;-73
2023/05/16 06:04:33;;;;;;;8.10;2.90;;;22.00;54.60;;;;;;5011465;28;20388;-73
2023/05/16 06:06:59;;;;;;;7.47;3.10;;;22.00;54.50;;;;;;5010783;28;20030;-76
2023/05/16 06:09:24;;;;;;;10.85;5.03;;;22.00;54.70;;;;;;5001778;28;20054;-77
2023/05/16 06:11:50;;;;;;;13.45;5.18;;;22.00;52.90;;;;;;4999056;28;20018;-78
2023/05/16 06:14:16;;;;;;;11.82;5.63;;;21.80;51.40;;;;;;4997595;28;20030;-77
2023/05/16 06:16:42;;;;;;;23.13;5.85;;;21.70;50.70;;;;;;5002797;28;20101;-73
2023/05/16 06:19:08;;;;;;;23.98;6.47;;;21.60;50.80;;;;;;4993263;28;20407;-72
2023/05/16 06:21:34;;;;;;;20.65;6.38;;;21.60;50.40;;;;;;5001477;28;20022;-72
2023/05/16 06:24:00;;;;;;;14.55;5.30;;;21.70;51.00;;;;;;5004531;28;20072;-72
2023/05/16 06:26:26;;;;;;;13.85;5.30;;;21.60;50.90;;;;;;5006568;28;20038;-72
2023/05/16 06:28:51;;;;;;;9.77;4.20;;;21.70;50.90;;;;;;4996586;28;20030;-72
2023/05/16 06:31:17;;;;;;;11.48;4.65;;;21.70;51.60;;;;;;5014655;28;20033;-73
2023/05/16 06:33:43;;;;;;;9.38;3.97;;;21.70;51.80;;;;;;5014868;28;20032;-73
2023/05/16 06:36:09;;;;;;;13.70;4.53;;;21.80;51.70;;;;;;5009007;28;20377;-73
2023/05/16 06:38:35;;;;;;;9.90;4.10;;;21.80;52.10;;;;;;5005724;28;20488;-72
2023/05/16 06:41:00;;;;;;;20.58;4.57;;;21.80;52.10;;;;;;5014409;28;20043;-73
2023/05/16 06:43:26;;;;;;;9.65;4.50;;;21.90;52.70;;;;;;4980598;28;20220;-74
2023/05/16 06:45:52;;;;;;;14.25;5.05;;;21.90;53.40;;;;;;5014306;28;20026;-73
2023/05/16 06:48:18;;;;;;;12.65;4.38;;;22.00;53.30;;;;;;5013875;28;20423;-73
2023/05/16 06:50:50;;;;;;;11.93;4.55;;;22.00;52.10;;;;;;4993111;28;20541;-73
2023/05/16 06:53:16;;;;;;;10.25;3.80;;;22.00;52.40;;;;;;5005995;28;20105;-73
2023/05/16 06:55:43;;;;;;;7.68;4.05;;;22.00;52.30;;;;;;5014225;28;20053;-73
2023/05/16 06:58:09;;;;;;;9.25;4.10;;;22.00;52.10;;;;;;4996229;28;20101;-73
2023/05/16 07:00:35;;;;;;;12.13;4.30;;;22.00;52.20;;;;;;5011710;28;20121;-74
2023/05/16 07:03:02;;;;;;;21.23;3.90;;;22.00;52.80;;;;;;4999319;28;20460;-74
2023/05/16 07:05:28;;;;;;;7.47;3.90;;;22.00;52.50;;;;;;4988299;28;20503;-73
2023/05/16 07:07:54;;;;;;;8.32;3.80;;;21.90;51.90;;;;;;4992450;28;20113;-74
2023/05/16 07:10:21;;;;;;;7.72;3.13;;;21.90;51.70;;;;;;4984782;28;20449;-74
2023/05/16 07:12:47;;;;;;;6.63;3.40;;;21.90;51.50;;;;;;5013204;28;20045;-73
2023/05/16 07:15:13;;;;;;;13.65;4.20;;;21.90;51.70;;;;;;5008956;28;20304;-77
2023/05/16 07:17:39;;;;;;;9.85;3.75;;;22.00;52.70;;;;;;5006846;28;20025;-72
2023/05/16 07:20:07;;;;;;;8.43;3.17;;;22.00;53.10;;;;;;5007535;28;20022;-73
2023/05/16 07:22:32;;;;;;;8.73;3.55;;;21.90;52.50;;;;;;5013738;28;20085;-73
2023/05/16 07:24:59;;;;;;;7.93;3.50;;;21.90;52.20;;;;;;5013576;28;20061;-73
2023/05/16 07:27:29;;;;;;;9.82;3.28;;;21.90;52.50;;;;;;5007366;28;20122;-73
2023/05/16 07:29:55;;;;;;;;;;;22.00;52.60;;;;;;4993178;28;20033;-72
2023/05/16 07:32:21;;;;;;;6.78;2.90;;;21.90;52.70;;;;;;4987970;28;19909;-73
2023/05/16 07:34:46;;;;;;;9.35;3.40;;;21.90;52.70;;;;;;4979021;28;20088;-73
2023/05/16 07:37:13;;;;;;;13.07;3.45;;;21.90;52.80;;;;;;4995468;28;20496;-73
2023/05/16 07:39:39;;;;;;;7.15;3.47;;;22.00;52.90;;;;;;5013472;28;20499;-73
2023/05/16 07:42:08;;;;;;;7.20;3.50;;;21.90;52.80;;;;;;4993756;28;20061;-72
2023/05/16 07:44:34;;;;;;;6.20;2.97;;;21.90;52.80;;;;;;5005400;28;20032;-73
2023/05/16 07:47:00;;;;;;;5.80;2.83;;;21.90;52.80;;;;;;5003945;28;20062;-73
2023/05/16 07:49:26;;;;;;;8.75;3.42;;;21.90;52.80;;;;;;5004946;28;20054;-73
2023/05/16 07:51:52;;;;;;;9.15;3.35;;;21.90;52.90;;;;;;5013172;28;20447;-73
2023/05/16 07:54:18;;;;;;;7.32;3.47;;;22.00;52.90;;;;;;5012996;28;20058;-73
2023/05/16 07:56:44;;;;;;;4.22;2.67;;;21.90;52.90;;;;;;5011078;28;20384;-73
2023/05/16 07:59:09;;;;;;;6.80;3.35;;;21.90;52.90;;;;;;4982550;28;20030;-73
2023/05/16 08:01:36;;;;;;;6.93;2.90;;;21.90;52.80;;;;;;4993629;28;20089;-73
2023/05/16 08:04:02;;;;;;;5.57;3.40;;;21.90;52.90;;;;;;4963361;28;20040;-73
2023/05/16 08:06:28;;;;;;;6.70;3.00;;;21.90;52.80;;;;;;5012840;28;20033;-72
2023/05/16 08:08:55;;;;;;;5.45;3.10;;;21.90;53.20;;;;;;4983072;28;20077;-72
2023/05/16 08:11:21;;;;;;;6.68;3.20;;;21.90;53.10;;;;;;5008683;28;20464;-73
2023/05/16 08:13:48;;;;;;;6.80;2.85;;;21.90;53.20;;;;;;5013031;28;20032;-73
2023/05/16 08:16:14;;;;;;;7.50;3.08;;;21.90;53.00;;;;;;4995150;28;20033;-73
2023/05/16 08:18:41;;;;;;;5.78;2.90;;;21.90;53.10;;;;;;5003401;28;20036;-71
2023/05/16 08:21:08;;;;;;;5.00;2.88;;;21.90;53.10;;;;;;4989152;28;20080;-72
2023/05/16 08:23:35;;;;;;;6.65;2.90;;;21.90;53.10;;;;;;4995347;28;20045;-72
2023/05/16 08:26:01;;;;;;;7.43;2.97;;;21.90;53.10;;;;;;5012551;28;20133;-72
2023/05/16 08:28:28;;;;;;;7.82;3.20;;;21.90;53.10;;;;;;5011981;28;20083;-72
2023/05/16 08:30:54;;;;;;;5.05;3.03;;;21.90;53.10;;;;;;5012525;28;20030;-72
2023/05/16 08:33:20;;;;;;;5.35;2.67;;;21.90;53.10;;;;;;5006359;28;20022;-72
2023/05/16 08:35:47;;;;;;;7.65;3.50;;;21.90;53.10;;;;;;5004076;28;20416;-72
2023/05/16 08:38:13;;;;;;;5.05;2.75;;;21.90;53.10;;;;;;5011954;28;20048;-72
2023/05/16 08:40:39;;;;;;;7.15;2.55;;;21.90;53.10;;;;;;5012299;28;20029;-71
2023/05/16 08:43:06;;;;;;;5.85;2.60;;;21.90;53.00;;;;;;5012625;28;20033;-72
2023/05/16 08:45:32;;;;;;;6.28;2.95;;;21.90;53.00;;;;;;5012230;28;20030;-71
2023/05/16 08:48:00;;;;;;;6.78;2.80;;;21.90;53.00;;;;;;5003876;28;20065;-72
2023/05/16 08:50:30;;;;;;;6.05;2.85;;;21.90;53.00;;;;;;4986349;28;20107;-72
2023/05/16 08:52:56;;;;;;;7.82;3.10;;;21.90;52.90;;;;;;5012112;28;20030;-72
2023/05/16 08:55:25;;;;;;;7.60;2.83;;;21.90;52.90;;;;;;4994456;28;20495;-72
2023/05/16 08:57:53;;;;;;;3.88;2.50;;;21.90;52.80;;;;;;4981110;28;20511;-72
2023/05/16 09:00:20;;;;;;;6.78;3.03;;;21.90;52.90;;;;;;4980812;28;20436;-72
2023/05/16 09:02:47;;;;;;;4.53;2.67;;;21.90;52.90;;;;;;4986025;28;20073;-72
2023/05/16 09:05:14;;;;;;;4.97;2.95;;;21.90;53.00;;;;;;5011896;28;20037;-72
2023/05/16 09:07:41;;;;;;;4.20;2.70;;;21.90;53.00;;;;;;4993963;28;20057;-72
2023/05/16 09:10:08;;;;;;;5.85;2.90;;;21.90;53.00;;;;;;4989609;28;20113;-71
2023/05/16 09:12:35;;;;;;;5.30;2.42;;;21.90;53.00;;;;;;4967908;28;20037;-72
2023/05/16 09:15:05;;;;;;;5.20;2.45;;;21.90;53.00;;;;;;4994234;28;20018;-71
2023/05/16 09:17:39;;;;;;;5.20;2.45;;;22.00;53.00;;;;;;4993769;28;20030;-72
2023/05/16 09:20:12;;;;;;;5.05;2.55;;;21.90;52.90;;;;;;4990943;28;20038;-72
2023/05/16 09:22:38;;;;;;;4.15;2.63;;;21.90;53.60;;;;;;5001544;28;20045;-72
2023/05/16 09:25:04;;;;;;;4.43;2.60;;;21.90;53.00;;;;;;4994242;28;20038;-72
2023/05/16 09:27:31;;;;;;;5.07;2.50;;;21.90;53.00;;;;;;4993628;28;20029;-72
2023/05/16 09:29:58;;;;;;;4.25;2.53;;;21.90;53.00;;;;;;4978030;28;20036;-72
2023/05/16 09:32:24;;;;;;;6.88;2.35;;;21.90;53.00;;;;;;4994113;28;20087;-72
2023/05/16 09:34:52;;;;;;;5.07;2.60;;;21.90;53.00;;;;;;5008667;28;20076;-72
2023/05/16 09:37:18;;;;;;;6.45;2.55;;;21.90;52.90;;;;;;5002044;28;20040;-74
2023/05/16 09:39:49;;;;;;;11.82;2.58;;;21.90;53.20;;;;;;4985931;28;20080;-74
2023/05/16 09:42:17;;;;;;;8.77;2.85;;;21.90;53.20;;;;;;5011509;28;20484;-73
2023/05/16 09:44:51;;;;;;;4.38;2.25;;;22.00;53.10;;;;;;4993825;28;20530;-73
2023/05/16 09:47:17;;;;;;;10.20;2.40;;;22.00;52.70;;;;;;4993575;28;20033;-73
2023/05/16 09:49:51;;;;;;;10.57;2.70;;;22.00;52.80;;;;;;4992191;28;20026;-73
2023/05/16 09:52:17;;;;;;;7.57;2.70;;;22.00;52.90;;;;;;4995162;28;20106;-74
2023/05/16 09:54:47;;;;;;;9.82;3.65;;;22.00;52.70;;;;;;4992616;28;20030;-74
2023/05/16 09:57:25;;;;;;;6.80;2.67;;;22.00;52.70;;;;;;4975734;28;20023;-73
2023/05/16 09:59:51;;;;;;;5.78;2.92;;;22.00;52.60;;;;;;4984895;28;20109;-73
2023/05/16 10:02:18;;;;;;;6.50;3.10;;;22.00;52.40;;;;;;4977933;28;20102;-74
2023/05/16 10:04:44;;;;;;;6.90;2.70;;;22.10;52.40;;;;;;4995023;28;20484;-73
2023/05/16 10:07:12;;;;;;;5.88;2.70;;;22.00;52.60;;;;;;4985659;28;20030;-74
2023/05/16 10:09:39;;;;;;;7.70;2.55;;;22.00;52.90;;;;;;4994353;28;20037;-74
2023/05/16 10:12:07;;;;;;;8.00;2.72;;;22.00;52.90;;;;;;4978063;28;20030;-74
2023/05/16 10:14:35;;;;;;;10.85;2.70;;;22.00;53.10;;;;;;4995773;28;20023;-74
2023/05/16 10:17:05;;;;;;;11.75;2.90;;;22.00;53.30;;;;;;4985640;28;20030;-74
2023/05/16 10:19:33;;;;;;;8.73;2.58;;;22.00;53.40;;;;;;4993055;28;20118;-73
2023/05/16 10:22:03;;;;;;;4.85;2.63;;;22.00;53.40;;;;;;4991512;28;20027;-74
2023/05/16 10:24:39;;;;;;;4.13;2.50;;;22.00;53.40;;;;;;4975027;28;20045;-74
2023/05/16 10:27:05;;;;;;;7.55;2.60;;;22.00;53.30;;;;;;4975757;28;20030;-73
2023/05/16 10:29:31;;;;;;;5.03;2.47;;;22.00;53.60;;;;;;4979299;28;20030;-73
2023/05/16 10:31:58;;;;;;;5.35;2.50;;;22.00;53.50;;;;;;4989259;28;20056;-73
2023/05/16 10:34:24;;;;;;;5.38;2.53;;;22.00;54.10;;;;;;4965149;28;20026;-73
2023/05/16 10:36:51;;;;;;;6.88;2.50;;;22.00;53.50;;;;;;4996682;28;20080;-74
2023/05/16 10:39:17;;;;;;;4.88;2.40;;;22.00;53.50;;;;;;5005817;28;20484;-73
2023/05/16 10:41:44;;;;;;;5.75;2.65;;;22.00;53.30;;;;;;4987738;28;20121;-73
2023/05/16 10:44:17;;;;;;;8.82;2.60;;;21.90;53.20;;;;;;5008894;28;20034;-74
2023/05/16 10:46:43;;;;;;;4.50;2.67;;;22.00;53.40;;;;;;4994707;28;20026;-74
2023/05/16 10:49:25;;;;;;;5.63;2.47;;;22.00;53.40;;;;;;4994427;28;20048;-73
2023/05/16 10:52:10;;;;;;;5.68;2.35;;;22.00;53.50;;;;;;4993337;28;20102;-74
2023/05/16 10:54:39;;;;;;;6.05;2.92;;;22.00;53.10;;;;;;5002454;28;20034;-73
2023/05/16 10:57:10;;;;;;;5.78;2.50;;;22.00;53.60;;;;;;5008553;28;20031;-73
2023/05/16 10:59:47;;;;;;;5.07;2.28;;;22.00;53.40;;;;;;4977331;28;20503;-73
2023/05/16 11:02:33;;;;;;;9.60;2.53;;;22.00;53.50;;;;;;4977353;28;20034;-73
2023/05/16 11:05:01;;;;;;;5.13;2.22;;;22.00;53.40;;;;;;4977169;28;20030;-73
2023/05/16 11:07:33;;;;;;;5.80;2.70;;;22.00;53.70;;;;;;4951976;28;20026;-74
2023/05/16 11:10:08;;;;;;;5.20;2.25;;;22.00;53.70;;;;;;4988814;28;20108;-73
2023/05/16 11:12:43;;;;;;;4.35;2.28;;;22.00;53.50;;;;;;4988864;28;20022;-73
2023/05/16 11:15:30;;;;;;;7.72;2.72;;;22.00;53.20;;;;;;4986951;28;20030;-72
2023/05/16 11:18:12;;;;;;;4.03;2.33;;;22.00;53.40;;;;;;4974914;28;20392;-74
2023/05/16 11:20:39;;;;;;;4.20;2.35;;;22.00;54.00;;;;;;4994104;28;20048;-74
2023/05/16 11:23:17;;;;;;;5.65;2.47;;;22.00;53.30;;;;;;4960870;28;20054;-74
2023/05/16 11:25:53;;;;;;;5.57;2.72;;;22.00;53.50;;;;;;4994234;28;20452;-73
2023/05/16 11:28:19;;;;;;;6.97;2.80;;;22.00;53.50;;;;;;4993677;28;20037;-73
2023/05/16 11:30:55;;;;;;;6.82;2.78;;;22.00;53.50;;;;;;4975315;28;20057;-72
2023/05/16 11:33:21;;;;;;;6.55;2.70;;;22.00;53.30;;;;;;4999670;28;20077;-72
2023/05/16 11:36:00;;;;;;;8.50;2.97;;;22.00;53.40;;;;;;4998292;28;20026;-73
2023/05/16 11:38:28;;;;;;;6.93;2.50;;;21.90;53.20;;;;;;4993427;28;20045;-72
2023/05/16 11:41:00;;;;;;;6.47;2.50;;;21.90;53.60;;;;;;4990909;28;20097;-73
2023/05/16 11:43:25;;;;;;;8.18;2.78;;;21.90;53.30;;;;;;4997773;28;20030;-73
2023/05/16 11:45:55;;;;;;;3.95;2.20;;;21.90;53.10;;;;;;4962395;28;20030;-72
2023/05/16 11:48:23;;;;;;;6.57;2.60;;;21.90;53.70;;;;;;4993559;28;20023;-73
2023/05/16 11:50:49;;;;;;;7.32;2.67;;;22.00;53.20;;;;;;4974028;28;20508;-74
2023/05/16 11:53:16;;;;;;;5.03;2.55;;;22.00;53.10;;;;;;4992893;28;20068;-74
2023/05/16 11:55:42;;;;;;;6.28;2.63;;;22.00;53.40;;;;;;4991217;28;20026;-74
2023/05/16 11:58:08;;;;;;;4.63;2.40;;;22.10;53.00;;;;;;4986768;28;20034;-74
2023/05/16 12:00:34;;;;;;;7.13;2.97;;;22.10;52.60;;;;;;4959740;28;20497;-74
2023/05/16 12:03:03;;;;;;;5.97;2.60;;;22.20;52.90;;;;;;4975277;28;20030;-75
2023/05/16 12:05:30;;;;;;;8.67;2.60;;;22.20;52.70;;;;;;4978264;28;20022;-75
2023/05/16 12:07:56;;;;;;;12.07;2.53;;;22.10;52.10;;;;;;4975284;28;20513;-75
2023/05/16 12:10:22;;;;;;;13.38;2.58;;;22.00;49.30;;;;;;4974062;28;20094;-75
2023/05/16 12:12:53;;;;;;;11.57;2.30;;;21.90;48.30;;;;;;4973706;28;20113;-74
2023/05/16 12:15:20;;;;;;;11.00;2.85;;;21.80;47.80;;;;;;4966094;28;20088;-73
2023/05/16 12:17:47;;;;;;;19.17;3.15;;;21.80;47.30;;;;;;4978465;28;21615;-74
2023/05/16 12:20:17;;;;;;;11.38;3.20;;;21.70;47.10;;;;;;4959630;28;20026;-74
2023/05/16 12:22:46;;;;;;;8.85;2.58;;;21.80;48.00;;;;;;4968679;28;20033;-73
2023/05/16 12:25:30;;;;;;;9.67;2.33;;;21.80;48.20;;;;;;4975511;28;20056;-73
2023/05/16 12:28:01;;;;;;;11.35;2.47;;;21.80;47.00;;;;;;4992498;28;20512;-74
2023/05/16 12:30:29;;;;;;;10.52;2.53;;;21.80;47.70;;;;;;4999667;28;20054;-73
2023/05/16 12:33:00;;;;;;;9.65;2.60;;;21.80;48.30;;;;;;4987676;28;20041;-74
2023/05/16 12:35:34;;;;;;;11.30;2.45;;;21.90;48.50;;;;;;4979249;28;20430;-74
2023/05/16 12:38:04;;;;;;;10.38;2.25;;;21.90;48.70;;;;;;4962111;28;20069;-73
2023/05/16 12:40:30;;;;;;;10.93;2.53;;;21.90;49.00;;;;;;4994795;28;20109;-74
2023/05/16 12:42:56;;;;;;;10.05;2.20;;;21.90;49.00;;;;;;4964556;28;20034;-73
2023/05/16 12:45:23;;;;;;;9.80;2.15;;;21.90;49.20;;;;;;5000749;28;20492;-73
2023/05/16 12:47:49;;;;;;;7.63;2.47;;;21.90;49.20;;;;;;4993835;28;20044;-73